sensor_id;sensor_type;location;lat;lon;timestamp;P1;P2;P0
80825;PMS5003;70237;48.502;9.200;2023-05-18T00:01:11;15;15;
80825;PMS5003;70237;48.502;9.200;2023-05-18T00:03:36;15;13;
80825;PMS5003;70237;48.502;9.200;2023-05-18T00:06:01;13;13;
80825;PMS5003;70237;48.502;9.200;2023-05-18T00:08:27;14;13;
80825;PMS5003;70237;48.502;9.200;2023-05-18T00:10:53;14;14;
80825;PMS5003;70237;48.502;9.200;2023-05-18T00:13:18;15;13;
80825;PMS5003;70237;48.502;9.200;2023-05-18T00:15:44;15;14;
80825;PMS5003;70237;48.502;9.200;2023-05-18T00:18:10;16;16;
80825;PMS5003;70237;48.502;9.200;2023-05-18T00:20:35;13;13;
80825;PMS5003;70237;48.502;9.200;2023-05-18T00:23:01;12;12;
80825;PMS5003;70237;48.502;9.200;2023-05-18T00:25:26;13;13;
80825;PMS5003;70237;48.502;9.200;2023-05-18T00:27:52;13;13;
80825;PMS5003;70237;48.502;9.200;2023-05-18T00:30:17;21;21;
80825;PMS5003;70237;48.502;9.200;2023-05-18T00:32:42;16;14;
80825;PMS5003;70237;48.502;9.200;2023-05-18T00:35:07;15;14;
80825;PMS5003;70237;48.502;9.200;2023-05-18T00:37:33;13;13;
80825;PMS5003;70237;48.502;9.200;2023-05-18T00:39:59;14;14;
80825;PMS5003;70237;48.502;9.200;2023-05-18T00:42:25;15;14;
80825;PMS5003;70237;48.502;9.200;2023-05-18T00:44:50;21;18;
80825;PMS5003;70237;48.502;9.200;2023-05-18T00:47:15;14;13;
80825;PMS5003;70237;48.502;9.200;2023-05-18T00:49:41;19;18;
80825;PMS5003;70237;48.502;9.200;2023-05-18T00:52:06;17;17;
80825;PMS5003;70237;48.502;9.200;2023-05-18T00:54:31;12;12;
80825;PMS5003;70237;48.502;9.200;2023-05-18T00:56:57;14;12;
80825;PMS5003;70237;48.502;9.200;2023-05-18T00:59:22;17;15;
80825;PMS5003;70237;48.502;9.200;2023-05-18T01:01:47;15;14;
80825;PMS5003;70237;48.502;9.200;2023-05-18T01:04:13;18;16;
80825;PMS5003;70237;48.502;9.200;2023-05-18T01:06:39;13;13;
80825;PMS5003;70237;48.502;9.200;2023-05-18T01:09:05;14;14;
80825;PMS5003;70237;48.502;9.200;2023-05-18T01:11:31;21;17;
80825;PMS5003;70237;48.502;9.200;2023-05-18T01:13:57;12;11;
80825;PMS5003;70237;48.502;9.200;2023-05-18T01:16:22;13;13;
80825;PMS5003;70237;48.502;9.200;2023-05-18T01:18:48;13;12;
80825;PMS5003;70237;48.502;9.200;2023-05-18T01:21:16;13;13;
80825;PMS5003;70237;48.502;9.200;2023-05-18T01:23:44;16;12;
80825;PMS5003;70237;48.502;9.200;2023-05-18T01:26:07;15;13;
80825;PMS5003;70237;48.502;9.200;2023-05-18T01:28:29;17;15;
80825;PMS5003;70237;48.502;9.200;2023-05-18T01:30:54;19;16;
80825;PMS5003;70237;48.502;9.200;2023-05-18T01:33:19;17;15;
80825;PMS5003;70237;48.502;9.200;2023-05-18T01:35:45;17;16;
80825;PMS5003;70237;48.502;9.200;2023-05-18T01:38:11;15;15;
80825;PMS5003;70237;48.502;9.200;2023-05-18T01:40:39;18;15;
80825;PMS5003;70237;48.502;9.200;2023-05-18T01:43:04;12;12;
80825;PMS5003;70237;48.502;9.200;2023-05-18T01:45:28;15;13;
80825;PMS5003;70237;48.502;9.200;2023-05-18T01:47:55;17;16;
80825;PMS5003;70237;48.502;9.200;2023-05-18T01:50:20;16;16;
80825;PMS5003;70237;48.502;9.200;2023-05-18T01:52:45;18;17;
80825;PMS5003;70237;48.502;9.200;2023-05-18T01:55:10;16;16;
80825;PMS5003;70237;48.502;9.200;2023-05-18T01:57:35;18;17;
80825;PMS5003;70237;48.502;9.200;2023-05-18T02:00:00;22;19;
80825;PMS5003;70237;48.502;9.200;2023-05-18T02:02:26;16;13;
80825;PMS5003;70237;48.502;9.200;2023-05-18T02:04:51;20;19;
80825;PMS5003;70237;48.502;9.200;2023-05-18T02:07:17;19;17;
80825;PMS5003;70237;48.502;9.200;2023-05-18T02:09:43;18;18;
80825;PMS5003;70237;48.502;9.200;2023-05-18T02:12:08;17;16;
80825;PMS5003;70237;48.502;9.200;2023-05-18T02:14:34;17;16;
80825;PMS5003;70237;48.502;9.200;2023-05-18T02:16:59;16;13;
80825;PMS5003;70237;48.502;9.200;2023-05-18T02:19:25;15;13;
80825;PMS5003;70237;48.502;9.200;2023-05-18T02:21:50;22;20;
80825;PMS5003;70237;48.502;9.200;2023-05-18T02:24:16;16;16;
80825;PMS5003;70237;48.502;9.200;2023-05-18T02:26:42;15;13;
80825;PMS5003;70237;48.502;9.200;2023-05-18T02:29:07;20;18;
80825;PMS5003;70237;48.502;9.200;2023-05-18T02:31:33;18;15;
80825;PMS5003;70237;48.502;9.200;2023-05-18T02:33:58;16;16;
80825;PMS5003;70237;48.502;9.200;2023-05-18T02:36:23;17;16;
80825;PMS5003;70237;48.502;9.200;2023-05-18T02:38:49;13;13;
80825;PMS5003;70237;48.502;9.200;2023-05-18T02:41:14;17;16;
80825;PMS5003;70237;48.502;9.200;2023-05-18T02:43:40;16;15;
80825;PMS5003;70237;48.502;9.200;2023-05-18T02:46:05;23;19;
80825;PMS5003;70237;48.502;9.200;2023-05-18T02:48:31;17;17;
80825;PMS5003;70237;48.502;9.200;2023-05-18T02:50:56;17;16;
80825;PMS5003;70237;48.502;9.200;2023-05-18T02:53:22;17;16;
80825;PMS5003;70237;48.502;9.200;2023-05-18T02:55:48;16;16;
80825;PMS5003;70237;48.502;9.200;2023-05-18T02:58:14;19;19;
80825;PMS5003;70237;48.502;9.200;2023-05-18T03:00:39;20;17;
80825;PMS5003;70237;48.502;9.200;2023-05-18T03:03:04;20;17;
80825;PMS5003;70237;48.502;9.200;2023-05-18T03:05:30;17;15;
80825;PMS5003;70237;48.502;9.200;2023-05-18T03:07:55;23;22;
80825;PMS5003;70237;48.502;9.200;2023-05-18T03:10:21;16;15;
80825;PMS5003;70237;48.502;9.200;2023-05-18T03:12:47;22;21;
80825;PMS5003;70237;48.502;9.200;2023-05-18T03:15:12;16;16;
80825;PMS5003;70237;48.502;9.200;2023-05-18T03:17:37;20;18;
80825;PMS5003;70237;48.502;9.200;2023-05-18T03:20:03;18;16;
80825;PMS5003;70237;48.502;9.200;2023-05-18T03:22:28;28;23;
80825;PMS5003;70237;48.502;9.200;2023-05-18T03:24:53;15;15;
80825;PMS5003;70237;48.502;9.200;2023-05-18T03:27:18;21;21;
80825;PMS5003;70237;48.502;9.200;2023-05-18T03:29:44;19;17;
80825;PMS5003;70237;48.502;9.200;2023-05-18T03:32:09;20;17;
80825;PMS5003;70237;48.502;9.200;2023-05-18T03:34:34;22;22;
80825;PMS5003;70237;48.502;9.200;2023-05-18T03:37:00;17;17;
80825;PMS5003;70237;48.502;9.200;2023-05-18T03:39:26;20;18;
80825;PMS5003;70237;48.502;9.200;2023-05-18T03:41:51;17;16;
80825;PMS5003;70237;48.502;9.200;2023-05-18T03:44:17;21;20;
80825;PMS5003;70237;48.502;9.200;2023-05-18T03:46:42;18;18;
80825;PMS5003;70237;48.502;9.200;2023-05-18T03:49:08;17;17;
80825;PMS5003;70237;48.502;9.200;2023-05-18T03:51:33;16;16;
80825;PMS5003;70237;48.502;9.200;2023-05-18T03:53:58;21;21;
80825;PMS5003;70237;48.502;9.200;2023-05-18T03:56:24;22;21;
80825;PMS5003;70237;48.502;9.200;2023-05-18T03:58:49;16;16;
80825;PMS5003;70237;48.502;9.200;2023-05-18T04:01:15;20;18;
80825;PMS5003;70237;48.502;9.200;2023-05-18T04:03:40;23;22;
80825;PMS5003;70237;48.502;9.200;2023-05-18T04:06:05;17;17;
80825;PMS5003;70237;48.502;9.200;2023-05-18T04:08:31;21;21;
80825;PMS5003;70237;48.502;9.200;2023-05-18T04:10:56;22;22;
80825;PMS5003;70237;48.502;9.200;2023-05-18T04:13:27;23;22;
80825;PMS5003;70237;48.502;9.200;2023-05-18T04:15:48;23;21;
80825;PMS5003;70237;48.502;9.200;2023-05-18T04:18:14;25;19;
80825;PMS5003;70237;48.502;9.200;2023-05-18T04:20:39;40;36;
80825;PMS5003;70237;48.502;9.200;2023-05-18T04:23:04;45;41;
80825;PMS5003;70237;48.502;9.200;2023-05-18T04:25:29;26;25;
80825;PMS5003;70237;48.502;9.200;2023-05-18T04:27:55;24;24;
80825;PMS5003;70237;48.502;9.200;2023-05-18T04:30:20;25;24;
80825;PMS5003;70237;48.502;9.200;2023-05-18T04:32:45;42;37;
80825;PMS5003;70237;48.502;9.200;2023-05-18T04:35:11;28;25;
80825;PMS5003;70237;48.502;9.200;2023-05-18T04:37:37;23;23;
80825;PMS5003;70237;48.502;9.200;2023-05-18T04:40:02;21;21;
80825;PMS5003;70237;48.502;9.200;2023-05-18T04:42:27;18;17;
80825;PMS5003;70237;48.502;9.200;2023-05-18T04:44:53;20;19;
80825;PMS5003;70237;48.502;9.200;2023-05-18T04:47:18;25;24;
80825;PMS5003;70237;48.502;9.200;2023-05-18T04:49:44;19;17;
80825;PMS5003;70237;48.502;9.200;2023-05-18T04:52:09;28;21;
80825;PMS5003;70237;48.502;9.200;2023-05-18T04:54:35;22;19;
80825;PMS5003;70237;48.502;9.200;2023-05-18T04:57:01;27;24;
80825;PMS5003;70237;48.502;9.200;2023-05-18T04:59:26;31;26;
80825;PMS5003;70237;48.502;9.200;2023-05-18T05:01:52;25;24;
80825;PMS5003;70237;48.502;9.200;2023-05-18T05:04:18;23;23;
80825;PMS5003;70237;48.502;9.200;2023-05-18T05:06:43;23;20;
80825;PMS5003;70237;48.502;9.200;2023-05-18T05:09:09;20;19;
80825;PMS5003;70237;48.502;9.200;2023-05-18T05:11:34;27;26;
80825;PMS5003;70237;48.502;9.200;2023-05-18T05:13:59;26;24;
80825;PMS5003;70237;48.502;9.200;2023-05-18T05:16:24;27;25;
80825;PMS5003;70237;48.502;9.200;2023-05-18T05:18:50;21;20;
80825;PMS5003;70237;48.502;9.200;2023-05-18T05:21:15;20;20;
80825;PMS5003;70237;48.502;9.200;2023-05-18T05:23:41;24;23;
80825;PMS5003;70237;48.502;9.200;2023-05-18T05:26:06;25;23;
80825;PMS5003;70237;48.502;9.200;2023-05-18T05:28:31;21;20;
80825;PMS5003;70237;48.502;9.200;2023-05-18T05:31:07;25;23;
80825;PMS5003;70237;48.502;9.200;2023-05-18T05:33:22;21;19;
80825;PMS5003;70237;48.502;9.200;2023-05-18T05:35:47;22;21;
80825;PMS5003;70237;48.502;9.200;2023-05-18T05:38:13;24;21;
80825;PMS5003;70237;48.502;9.200;2023-05-18T05:40:38;28;27;
80825;PMS5003;70237;48.502;9.200;2023-05-18T05:43:03;25;25;
80825;PMS5003;70237;48.502;9.200;2023-05-18T05:45:28;22;19;
80825;PMS5003;70237;48.502;9.200;2023-05-18T05:47:53;21;21;
80825;PMS5003;70237;48.502;9.200;2023-05-18T05:50:19;20;20;
80825;PMS5003;70237;48.502;9.200;2023-05-18T05:52:45;28;27;
80825;PMS5003;70237;48.502;9.200;2023-05-18T05:55:10;25;22;
80825;PMS5003;70237;48.502;9.200;2023-05-18T05:57:36;18;17;
80825;PMS5003;70237;48.502;9.200;2023-05-18T06:00:02;20;18;
80825;PMS5003;70237;48.502;9.200;2023-05-18T06:02:27;18;16;
80825;PMS5003;70237;48.502;9.200;2023-05-18T06:04:53;24;23;
80825;PMS5003;70237;48.502;9.200;2023-05-18T06:07:18;22;21;
80825;PMS5003;70237;48.502;9.200;2023-05-18T06:09:44;20;19;
80825;PMS5003;70237;48.502;9.200;2023-05-18T06:12:09;19;18;
80825;PMS5003;70237;48.502;9.200;2023-05-18T06:14:35;20;20;
80825;PMS5003;70237;48.502;9.200;2023-05-18T06:17:01;23;21;
80825;PMS5003;70237;48.502;9.200;2023-05-18T06:19:26;22;21;
80825;PMS5003;70237;48.502;9.200;2023-05-18T06:21:51;21;18;
80825;PMS5003;70237;48.502;9.200;2023-05-18T06:24:16;20;20;
80825;PMS5003;70237;48.502;9.200;2023-05-18T06:26:42;16;16;
80825;PMS5003;70237;48.502;9.200;2023-05-18T06:29:07;23;21;
80825;PMS5003;70237;48.502;9.200;2023-05-18T06:31:33;23;21;
80825;PMS5003;70237;48.502;9.200;2023-05-18T06:33:58;26;24;
80825;PMS5003;70237;48.502;9.200;2023-05-18T06:36:24;26;26;
80825;PMS5003;70237;48.502;9.200;2023-05-18T06:38:50;23;20;
80825;PMS5003;70237;48.502;9.200;2023-05-18T06:41:15;21;19;
80825;PMS5003;70237;48.502;9.200;2023-05-18T06:43:40;19;16;
80825;PMS5003;70237;48.502;9.200;2023-05-18T06:46:06;19;18;
80825;PMS5003;70237;48.502;9.200;2023-05-18T06:48:31;14;14;
80825;PMS5003;70237;48.502;9.200;2023-05-18T06:50:56;17;16;
80825;PMS5003;70237;48.502;9.200;2023-05-18T06:53:21;13;13;
80825;PMS5003;70237;48.502;9.200;2023-05-18T06:55:47;16;16;
80825;PMS5003;70237;48.502;9.200;2023-05-18T06:58:13;25;23;
80825;PMS5003;70237;48.502;9.200;2023-05-18T07:00:39;18;16;
80825;PMS5003;70237;48.502;9.200;2023-05-18T07:03:04;17;16;
80825;PMS5003;70237;48.502;9.200;2023-05-18T07:05:30;15;15;
80825;PMS5003;70237;48.502;9.200;2023-05-18T07:07:55;21;21;
80825;PMS5003;70237;48.502;9.200;2023-05-18T07:10:30;18;17;
80825;PMS5003;70237;48.502;9.200;2023-05-18T07:12:46;17;16;
80825;PMS5003;70237;48.502;9.200;2023-05-18T07:15:12;17;17;
80825;PMS5003;70237;48.502;9.200;2023-05-18T07:17:37;16;15;
80825;PMS5003;70237;48.502;9.200;2023-05-18T07:20:03;17;16;
80825;PMS5003;70237;48.502;9.200;2023-05-18T07:22:28;15;15;
80825;PMS5003;70237;48.502;9.200;2023-05-18T07:24:54;17;17;
80825;PMS5003;70237;48.502;9.200;2023-05-18T07:27:19;15;15;
80825;PMS5003;70237;48.502;9.200;2023-05-18T07:29:44;19;19;
80825;PMS5003;70237;48.502;9.200;2023-05-18T07:32:10;20;18;
80825;PMS5003;70237;48.502;9.200;2023-05-18T07:34:35;17;16;
80825;PMS5003;70237;48.502;9.200;2023-05-18T07:37:01;21;21;
80825;PMS5003;70237;48.502;9.200;2023-05-18T07:39:26;23;20;
80825;PMS5003;70237;48.502;9.200;2023-05-18T07:41:56;18;17;
80825;PMS5003;70237;48.502;9.200;2023-05-18T07:44:17;18;15;
80825;PMS5003;70237;48.502;9.200;2023-05-18T07:46:42;15;15;
80825;PMS5003;70237;48.502;9.200;2023-05-18T07:49:07;19;18;
80825;PMS5003;70237;48.502;9.200;2023-05-18T07:51:33;15;15;
80825;PMS5003;70237;48.502;9.200;2023-05-18T07:53:58;21;20;
80825;PMS5003;70237;48.502;9.200;2023-05-18T07:56:23;19;17;
80825;PMS5003;70237;48.502;9.200;2023-05-18T07:58:49;14;13;
80825;PMS5003;70237;48.502;9.200;2023-05-18T08:01:14;16;16;
80825;PMS5003;70237;48.502;9.200;2023-05-18T08:03:39;18;16;
80825;PMS5003;70237;48.502;9.200;2023-05-18T08:06:05;15;15;
80825;PMS5003;70237;48.502;9.200;2023-05-18T08:08:30;13;13;
80825;PMS5003;70237;48.502;9.200;2023-05-18T08:10:56;16;14;
80825;PMS5003;70237;48.502;9.200;2023-05-18T08:13:21;17;16;
80825;PMS5003;70237;48.502;9.200;2023-05-18T08:15:47;17;17;
80825;PMS5003;70237;48.502;9.200;2023-05-18T08:18:12;15;14;
80825;PMS5003;70237;48.502;9.200;2023-05-18T08:20:37;16;16;
80825;PMS5003;70237;48.502;9.200;2023-05-18T08:23:02;19;18;
80825;PMS5003;70237;48.502;9.200;2023-05-18T08:25:28;20;18;
80825;PMS5003;70237;48.502;9.200;2023-05-18T08:27:53;20;17;
80825;PMS5003;70237;48.502;9.200;2023-05-18T08:30:20;21;17;
80825;PMS5003;70237;48.502;9.200;2023-05-18T08:32:44;21;20;
80825;PMS5003;70237;48.502;9.200;2023-05-18T08:35:10;27;25;
80825;PMS5003;70237;48.502;9.200;2023-05-18T08:37:35;21;18;
80825;PMS5003;70237;48.502;9.200;2023-05-18T08:40:01;17;15;
80825;PMS5003;70237;48.502;9.200;2023-05-18T08:42:28;17;15;
80825;PMS5003;70237;48.502;9.200;2023-05-18T08:44:54;17;16;
80825;PMS5003;70237;48.502;9.200;2023-05-18T08:47:17;18;17;
80825;PMS5003;70237;48.502;9.200;2023-05-18T08:49:43;18;18;
80825;PMS5003;70237;48.502;9.200;2023-05-18T08:52:08;16;15;
80825;PMS5003;70237;48.502;9.200;2023-05-18T08:54:34;14;13;
80825;PMS5003;70237;48.502;9.200;2023-05-18T08:56:59;14;14;
80825;PMS5003;70237;48.502;9.200;2023-05-18T08:59:26;14;14;
80825;PMS5003;70237;48.502;9.200;2023-05-18T09:01:50;15;15;
80825;PMS5003;70237;48.502;9.200;2023-05-18T09:04:15;19;17;
80825;PMS5003;70237;48.502;9.200;2023-05-18T09:06:41;16;16;
80825;PMS5003;70237;48.502;9.200;2023-05-18T09:09:07;14;13;
80825;PMS5003;70237;48.502;9.200;2023-05-18T09:11:32;15;14;
80825;PMS5003;70237;48.502;9.200;2023-05-18T09:13:58;16;15;
80825;PMS5003;70237;48.502;9.200;2023-05-18T09:16:23;15;14;
80825;PMS5003;70237;48.502;9.200;2023-05-18T09:18:48;16;15;
80825;PMS5003;70237;48.502;9.200;2023-05-18T09:21:14;16;16;
80825;PMS5003;70237;48.502;9.200;2023-05-18T09:23:39;16;16;
80825;PMS5003;70237;48.502;9.200;2023-05-18T09:26:05;15;14;
80825;PMS5003;70237;48.502;9.200;2023-05-18T09:28:31;17;16;
80825;PMS5003;70237;48.502;9.200;2023-05-18T09:30:56;15;14;
80825;PMS5003;70237;48.502;9.200;2023-05-18T09:33:22;13;12;
80825;PMS5003;70237;48.502;9.200;2023-05-18T09:35:47;19;17;
80825;PMS5003;70237;48.502;9.200;2023-05-18T09:38:14;17;15;
80825;PMS5003;70237;48.502;9.200;2023-05-18T09:40:42;21;20;
80825;PMS5003;70237;48.502;9.200;2023-05-18T09:43:05;11;11;
80825;PMS5003;70237;48.502;9.200;2023-05-18T09:45:29;10;10;
80825;PMS5003;70237;48.502;9.200;2023-05-18T09:47:55;11;11;
80825;PMS5003;70237;48.502;9.200;2023-05-18T09:50:20;12;11;
80825;PMS5003;70237;48.502;9.200;2023-05-18T09:52:45;12;11;
80825;PMS5003;70237;48.502;9.200;2023-05-18T09:55:11;12;12;
80825;PMS5003;70237;48.502;9.200;2023-05-18T09:57:38;11;10;
80825;PMS5003;70237;48.502;9.200;2023-05-18T10:00:02;12;12;
80825;PMS5003;70237;48.502;9.200;2023-05-18T10:02:29;14;13;
80825;PMS5003;70237;48.502;9.200;2023-05-18T10:04:53;12;11;
80825;PMS5003;70237;48.502;9.200;2023-05-18T10:07:18;13;13;
80825;PMS5003;70237;48.502;9.200;2023-05-18T10:09:44;12;12;
80825;PMS5003;70237;48.502;9.200;2023-05-18T10:12:10;12;12;
80825;PMS5003;70237;48.502;9.200;2023-05-18T10:14:34;13;11;
80825;PMS5003;70237;48.502;9.200;2023-05-18T10:16:59;11;11;
80825;PMS5003;70237;48.502;9.200;2023-05-18T10:19:24;10;10;
80825;PMS5003;70237;48.502;9.200;2023-05-18T10:21:50;10;9;
80825;PMS5003;70237;48.502;9.200;2023-05-18T10:24:15;9;9;
80825;PMS5003;70237;48.502;9.200;2023-05-18T10:26:40;11;11;
80825;PMS5003;70237;48.502;9.200;2023-05-18T10:29:06;10;10;
80825;PMS5003;70237;48.502;9.200;2023-05-18T10:31:31;9;9;
80825;PMS5003;70237;48.502;9.200;2023-05-18T10:33:56;10;10;
80825;PMS5003;70237;48.502;9.200;2023-05-18T10:36:22;10;10;
80825;PMS5003;70237;48.502;9.200;2023-05-18T10:38:48;10;9;
80825;PMS5003;70237;48.502;9.200;2023-05-18T10:41:13;11;10;
80825;PMS5003;70237;48.502;9.200;2023-05-18T10:43:39;11;9;
80825;PMS5003;70237;48.502;9.200;2023-05-18T10:46:04;7;7;
80825;PMS5003;70237;48.502;9.200;2023-05-18T10:48:30;8;8;
80825;PMS5003;70237;48.502;9.200;2023-05-18T10:50:55;9;8;
80825;PMS5003;70237;48.502;9.200;2023-05-18T10:53:21;12;11;
80825;PMS5003;70237;48.502;9.200;2023-05-18T10:55:47;24;24;
80825;PMS5003;70237;48.502;9.200;2023-05-18T10:58:13;13;12;
80825;PMS5003;70237;48.502;9.200;2023-05-18T11:00:38;7;6;
80825;PMS5003;70237;48.502;9.200;2023-05-18T11:03:03;9;9;
80825;PMS5003;70237;48.502;9.200;2023-05-18T11:05:29;7;7;
80825;PMS5003;70237;48.502;9.200;2023-05-18T11:07:58;9;8;
80825;PMS5003;70237;48.502;9.200;2023-05-18T11:10:20;13;12;
80825;PMS5003;70237;48.502;9.200;2023-05-18T11:12:45;9;9;
80825;PMS5003;70237;48.502;9.200;2023-05-18T11:15:10;15;14;
80825;PMS5003;70237;48.502;9.200;2023-05-18T11:17:36;11;10;
80825;PMS5003;70237;48.502;9.200;2023-05-18T11:20:10;7;7;
80825;PMS5003;70237;48.502;9.200;2023-05-18T11:24:52;7;7;
80825;PMS5003;70237;48.502;9.200;2023-05-18T11:27:18;10;10;
80825;PMS5003;70237;48.502;9.200;2023-05-18T11:29:43;10;10;
80825;PMS5003;70237;48.502;9.200;2023-05-18T11:34:35;10;8;
80825;PMS5003;70237;48.502;9.200;2023-05-18T11:36:59;8;8;
80825;PMS5003;70237;48.502;9.200;2023-05-18T11:39:25;9;8;
80825;PMS5003;70237;48.502;9.200;2023-05-18T11:44:16;8;7;
80825;PMS5003;70237;48.502;9.200;2023-05-18T11:49:07;15;14;
80825;PMS5003;70237;48.502;9.200;2023-05-18T11:51:32;14;12;
80825;PMS5003;70237;48.502;9.200;2023-05-18T11:53:57;15;15;
80825;PMS5003;70237;48.502;9.200;2023-05-18T11:56:23;10;9;
80825;PMS5003;70237;48.502;9.200;2023-05-18T12:01:13;14;13;
80825;PMS5003;70237;48.502;9.200;2023-05-18T12:03:39;15;14;
80825;PMS5003;70237;48.502;9.200;2023-05-18T12:06:05;13;13;
80825;PMS5003;70237;48.502;9.200;2023-05-18T12:08:30;9;8;
80825;PMS5003;70237;48.502;9.200;2023-05-18T12:10:55;10;10;
80825;PMS5003;70237;48.502;9.200;2023-05-18T12:13:21;11;11;
80825;PMS5003;70237;48.502;9.200;2023-05-18T12:15:46;17;15;
80825;PMS5003;70237;48.502;9.200;2023-05-18T12:18:11;12;12;
80825;PMS5003;70237;48.502;9.200;2023-05-18T12:20:37;13;12;
80825;PMS5003;70237;48.502;9.200;2023-05-18T12:23:02;13;13;
80825;PMS5003;70237;48.502;9.200;2023-05-18T12:25:28;11;9;
80825;PMS5003;70237;48.502;9.200;2023-05-18T12:27:53;7;6;
80825;PMS5003;70237;48.502;9.200;2023-05-18T12:30:19;9;9;
80825;PMS5003;70237;48.502;9.200;2023-05-18T12:32:44;5;5;
80825;PMS5003;70237;48.502;9.200;2023-05-18T12:35:09;7;7;
80825;PMS5003;70237;48.502;9.200;2023-05-18T12:37:40;8;8;
80825;PMS5003;70237;48.502;9.200;2023-05-18T12:40:00;8;8;
80825;PMS5003;70237;48.502;9.200;2023-05-18T12:42:26;6;5;
80825;PMS5003;70237;48.502;9.200;2023-05-18T12:44:51;5;5;
80825;PMS5003;70237;48.502;9.200;2023-05-18T12:47:17;6;6;
80825;PMS5003;70237;48.502;9.200;2023-05-18T12:49:47;10;10;
80825;PMS5003;70237;48.502;9.200;2023-05-18T12:52:08;6;5;
80825;PMS5003;70237;48.502;9.200;2023-05-18T12:54:33;9;8;
80825;PMS5003;70237;48.502;9.200;2023-05-18T12:57:03;9;7;
80825;PMS5003;70237;48.502;9.200;2023-05-18T12:59:24;9;9;
80825;PMS5003;70237;48.502;9.200;2023-05-18T13:01:49;9;8;
80825;PMS5003;70237;48.502;9.200;2023-05-18T13:04:14;7;7;
80825;PMS5003;70237;48.502;9.200;2023-05-18T13:06:40;6;6;
80825;PMS5003;70237;48.502;9.200;2023-05-18T13:09:06;5;5;
80825;PMS5003;70237;48.502;9.200;2023-05-18T13:11:31;11;10;
80825;PMS5003;70237;48.502;9.200;2023-05-18T13:13:57;9;9;
80825;PMS5003;70237;48.502;9.200;2023-05-18T13:16:22;9;8;
80825;PMS5003;70237;48.502;9.200;2023-05-18T13:21:12;9;8;
80825;PMS5003;70237;48.502;9.200;2023-05-18T13:23:38;8;7;
80825;PMS5003;70237;48.502;9.200;2023-05-18T13:26:03;9;7;
80825;PMS5003;70237;48.502;9.200;2023-05-18T13:28:29;8;7;
80825;PMS5003;70237;48.502;9.200;2023-05-18T13:30:54;7;7;
80825;PMS5003;70237;48.502;9.200;2023-05-18T13:33:20;8;7;
80825;PMS5003;70237;48.502;9.200;2023-05-18T13:35:45;9;9;
80825;PMS5003;70237;48.502;9.200;2023-05-18T13:38:11;7;7;
80825;PMS5003;70237;48.502;9.200;2023-05-18T13:40:36;8;8;
80825;PMS5003;70237;48.502;9.200;2023-05-18T13:43:01;8;7;
80825;PMS5003;70237;48.502;9.200;2023-05-18T13:45:27;6;5;
80825;PMS5003;70237;48.502;9.200;2023-05-18T13:47:52;17;15;
80825;PMS5003;70237;48.502;9.200;2023-05-18T13:50:18;9;8;
80825;PMS5003;70237;48.502;9.200;2023-05-18T13:52:43;7;7;
80825;PMS5003;70237;48.502;9.200;2023-05-18T13:55:09;8;8;
80825;PMS5003;70237;48.502;9.200;2023-05-18T13:57:34;8;7;
80825;PMS5003;70237;48.502;9.200;2023-05-18T13:59:59;6;6;
80825;PMS5003;70237;48.502;9.200;2023-05-18T14:02:25;8;8;
80825;PMS5003;70237;48.502;9.200;2023-05-18T14:04:50;9;9;
80825;PMS5003;70237;48.502;9.200;2023-05-18T14:07:16;12;11;
80825;PMS5003;70237;48.502;9.200;2023-05-18T14:09:41;11;10;
80825;PMS5003;70237;48.502;9.200;2023-05-18T14:12:07;9;9;
80825;PMS5003;70237;48.502;9.200;2023-05-18T14:14:32;9;9;
80825;PMS5003;70237;48.502;9.200;2023-05-18T14:16:58;9;8;
80825;PMS5003;70237;48.502;9.200;2023-05-18T14:19:23;9;8;
80825;PMS5003;70237;48.502;9.200;2023-05-18T14:21:48;8;7;
80825;PMS5003;70237;48.502;9.200;2023-05-18T14:24:13;8;7;
80825;PMS5003;70237;48.502;9.200;2023-05-18T14:26:39;6;6;
80825;PMS5003;70237;48.502;9.200;2023-05-18T14:29:04;8;8;
80825;PMS5003;70237;48.502;9.200;2023-05-18T14:31:29;9;8;
80825;PMS5003;70237;48.502;9.200;2023-05-18T14:33:55;11;10;
80825;PMS5003;70237;48.502;9.200;2023-05-18T14:36:20;10;10;
80825;PMS5003;70237;48.502;9.200;2023-05-18T14:38:46;8;7;
80825;PMS5003;70237;48.502;9.200;2023-05-18T14:41:12;9;8;
80825;PMS5003;70237;48.502;9.200;2023-05-18T14:43:36;9;9;
80825;PMS5003;70237;48.502;9.200;2023-05-18T14:46:02;7;7;
80825;PMS5003;70237;48.502;9.200;2023-05-18T14:48:27;4;4;
80825;PMS5003;70237;48.502;9.200;2023-05-18T14:50:53;7;7;
80825;PMS5003;70237;48.502;9.200;2023-05-18T14:53:18;9;8;
80825;PMS5003;70237;48.502;9.200;2023-05-18T14:55:44;9;8;
80825;PMS5003;70237;48.502;9.200;2023-05-18T14:58:09;9;9;
80825;PMS5003;70237;48.502;9.200;2023-05-18T15:00:35;8;6;
80825;PMS5003;70237;48.502;9.200;2023-05-18T15:03:00;9;8;
80825;PMS5003;70237;48.502;9.200;2023-05-18T15:05:26;8;7;
80825;PMS5003;70237;48.502;9.200;2023-05-18T15:07:51;7;7;
80825;PMS5003;70237;48.502;9.200;2023-05-18T15:10:17;8;8;
80825;PMS5003;70237;48.502;9.200;2023-05-18T15:12:42;8;8;
80825;PMS5003;70237;48.502;9.200;2023-05-18T15:15:08;9;8;
80825;PMS5003;70237;48.502;9.200;2023-05-18T15:17:33;6;6;
80825;PMS5003;70237;48.502;9.200;2023-05-18T15:19:58;7;7;
80825;PMS5003;70237;48.502;9.200;2023-05-18T15:22:24;7;7;
80825;PMS5003;70237;48.502;9.200;2023-05-18T15:24:49;8;8;
80825;PMS5003;70237;48.502;9.200;2023-05-18T15:27:15;7;7;
80825;PMS5003;70237;48.502;9.200;2023-05-18T15:29:40;7;7;
80825;PMS5003;70237;48.502;9.200;2023-05-18T15:32:06;6;6;
80825;PMS5003;70237;48.502;9.200;2023-05-18T15:34:31;7;7;
80825;PMS5003;70237;48.502;9.200;2023-05-18T15:36:57;8;8;
80825;PMS5003;70237;48.502;9.200;2023-05-18T15:39:22;10;9;
80825;PMS5003;70237;48.502;9.200;2023-05-18T15:41:47;7;7;
80825;PMS5003;70237;48.502;9.200;2023-05-18T15:44:13;9;9;
80825;PMS5003;70237;48.502;9.200;2023-05-18T15:49:03;14;10;
80825;PMS5003;70237;48.502;9.200;2023-05-18T15:51:29;9;8;
80825;PMS5003;70237;48.502;9.200;2023-05-18T15:53:54;7;7;
80825;PMS5003;70237;48.502;9.200;2023-05-18T15:56:20;14;12;
80825;PMS5003;70237;48.502;9.200;2023-05-18T15:58:46;11;9;
80825;PMS5003;70237;48.502;9.200;2023-05-18T16:01:11;9;9;
80825;PMS5003;70237;48.502;9.200;2023-05-18T16:03:37;8;8;
80825;PMS5003;70237;48.502;9.200;2023-05-18T16:06:02;11;10;
80825;PMS5003;70237;48.502;9.200;2023-05-18T16:08:28;12;9;
80825;PMS5003;70237;48.502;9.200;2023-05-18T16:10:53;8;8;
80825;PMS5003;70237;48.502;9.200;2023-05-18T16:13:19;9;9;
80825;PMS5003;70237;48.502;9.200;2023-05-18T16:15:44;8;7;
80825;PMS5003;70237;48.502;9.200;2023-05-18T16:18:10;13;13;
80825;PMS5003;70237;48.502;9.200;2023-05-18T16:20:35;13;13;
80825;PMS5003;70237;48.502;9.200;2023-05-18T16:23:01;13;12;
80825;PMS5003;70237;48.502;9.200;2023-05-18T16:25:26;13;12;
80825;PMS5003;70237;48.502;9.200;2023-05-18T16:27:51;12;11;
80825;PMS5003;70237;48.502;9.200;2023-05-18T16:30:17;7;7;